createdAt,value
2019-02-20T00:02:11.039Z,57.20
2019-02-20T00:04:43.227Z,57.20
2019-02-20T00:07:15.743Z,57.10
2019-02-20T00:09:48.304Z,57.30
2019-02-20T00:12:21.648Z,57.10
2019-02-20T00:14:53.529Z,57.00
2019-02-20T00:17:25.692Z,57.80
2019-02-20T00:19:58.606Z,57.10
2019-02-20T00:22:39.841Z,57.20
2019-02-20T00:25:04.287Z,57.10
2019-02-20T00:27:36.682Z,57.00
2019-02-20T00:30:08.770Z,57.00
2019-02-20T00:32:40.579Z,56.80
2019-02-20T00:35:12.673Z,56.90
2019-02-20T00:37:45.179Z,56.80
2019-02-20T00:40:17.804Z,56.80
2019-02-20T00:42:50.535Z,56.70
2019-02-20T00:45:56.766Z,56.70
2019-02-20T00:48:43.316Z,56.70
2019-02-20T00:51:37.338Z,56.60
2019-02-20T00:54:09.534Z,56.60
2019-02-20T00:56:42.265Z,56.60
2019-02-20T00:59:14.192Z,56.60
2019-02-20T01:01:46.514Z,56.40
2019-02-20T01:04:18.929Z,56.40
2019-02-20T01:06:51.399Z,56.40
2019-02-20T01:09:23.816Z,56.50
2019-02-20T01:11:56.098Z,56.40
2019-02-20T01:14:28.175Z,56.20
2019-02-20T01:17:00.087Z,55.90
2019-02-20T01:19:31.886Z,56.50
2019-02-20T01:22:03.755Z,55.90
2019-02-20T01:24:36.261Z,55.90
2019-02-20T01:27:08.893Z,56.10
2019-02-20T01:29:41.772Z,56.20
2019-02-20T01:32:13.652Z,56.20
2019-02-20T01:34:45.464Z,56.10
2019-02-20T01:37:18.005Z,55.90
2019-02-20T01:39:50.150Z,56.20
2019-02-20T01:42:22.017Z,56.30
2019-02-20T01:44:53.825Z,56.30
2019-02-20T01:47:26.744Z,56.30
2019-02-20T01:49:59.277Z,56.50
2019-02-20T01:52:31.142Z,56.60
2019-02-20T01:55:03.638Z,56.70
2019-02-20T01:57:35.507Z,56.80
2019-02-20T02:00:08.717Z,56.90
2019-02-20T02:02:40.774Z,56.80
2019-02-20T02:05:15.441Z,57.00
2019-02-20T02:07:47.075Z,57.00
2019-02-20T02:10:19.057Z,57.00
2019-02-20T02:12:51.318Z,56.70
2019-02-20T02:15:23.509Z,57.50
2019-02-20T02:17:55.396Z,56.50
2019-02-20T02:20:27.898Z,56.50
2019-02-20T02:22:59.779Z,56.50
2019-02-20T02:25:31.923Z,56.40
2019-02-20T02:28:03.816Z,56.50
2019-02-20T02:30:35.989Z,56.30
2019-02-20T02:33:08.902Z,56.20
2019-02-20T02:35:40.709Z,56.70
2019-02-20T02:38:13.388Z,56.70
2019-02-20T02:40:45.202Z,57.10
2019-02-20T02:43:17.378Z,57.10
2019-02-20T02:45:49.927Z,57.10
2019-02-20T02:48:21.772Z,57.10
2019-02-20T02:50:54.008Z,57.00
2019-02-20T02:53:30.569Z,56.90
2019-02-20T02:55:59.723Z,57.50
2019-02-20T02:58:32.084Z,56.60
2019-02-20T03:01:07.792Z,56.50
2019-02-20T03:03:40.425Z,56.30
2019-02-20T03:06:12.350Z,56.20
2019-02-20T03:08:44.486Z,56.40
2019-02-20T03:11:16.661Z,56.60
2019-02-20T03:13:48.524Z,56.90
2019-02-20T03:16:20.871Z,57.00
2019-02-20T03:18:53.115Z,57.20
2019-02-20T03:21:25.032Z,57.10
2019-02-20T03:23:57.148Z,57.30
2019-02-20T03:26:29.357Z,57.30
2019-02-20T03:29:01.507Z,57.10
2019-02-20T03:31:33.362Z,56.90
2019-02-20T03:34:08.701Z,56.80
2019-02-20T03:36:39.275Z,56.50
2019-02-20T03:39:11.568Z,56.70
2019-02-20T03:41:43.440Z,56.80
2019-02-20T03:44:15.764Z,57.10
2019-02-20T03:46:47.940Z,57.10
2019-02-20T03:49:20.434Z,57.20
2019-02-20T03:51:53.118Z,57.20
2019-02-20T03:54:25.646Z,57.20
2019-02-20T03:56:58.052Z,57.00
2019-02-20T03:59:29.900Z,56.70
2019-02-20T04:02:02.215Z,56.80
2019-02-20T04:04:34.502Z,57.30
2019-02-20T04:07:06.390Z,57.60
2019-02-20T04:09:38.531Z,57.70
2019-02-20T04:12:10.921Z,57.80
2019-02-20T04:14:42.840Z,58.00
2019-02-20T04:17:15.250Z,57.90
2019-02-20T04:19:47.605Z,57.40
2019-02-20T04:22:20.093Z,57.00
2019-02-20T04:24:52.729Z,56.80
2019-02-20T04:27:25.151Z,57.20
2019-02-20T04:29:57.928Z,57.40
2019-02-20T04:32:29.738Z,57.60
2019-02-20T04:35:01.954Z,57.70
2019-02-20T04:37:33.773Z,58.00
2019-02-20T04:40:06.055Z,58.00
2019-02-20T04:42:37.888Z,58.20
2019-02-20T04:45:10.049Z,58.60
2019-02-20T04:47:43.872Z,58.70
2019-02-20T04:50:16.136Z,58.80
2019-02-20T04:52:48.062Z,59.00
2019-02-20T04:55:19.992Z,59.10
2019-02-20T04:58:15.707Z,59.00
2019-02-20T05:00:47.969Z,59.00
2019-02-20T05:03:19.918Z,58.90
2019-02-20T05:05:52.095Z,58.90
2019-02-20T05:08:24.295Z,58.80
2019-02-20T05:10:56.147Z,58.80
2019-02-20T05:13:28.523Z,58.70
2019-02-20T05:16:00.394Z,58.40
2019-02-20T05:18:32.685Z,58.40
2019-02-20T05:21:04.882Z,58.30
2019-02-20T05:23:37.318Z,58.30
2019-02-20T05:26:09.813Z,58.50
2019-02-20T05:28:43.104Z,58.50
2019-02-20T05:31:16.570Z,58.50
2019-02-20T05:33:49.631Z,58.50
2019-02-20T05:36:21.898Z,58.70
2019-02-20T05:38:54.275Z,58.90
2019-02-20T05:41:26.529Z,59.00
2019-02-20T05:43:58.673Z,59.00
2019-02-20T05:46:30.909Z,59.00
2019-02-20T05:49:03.130Z,58.90
2019-02-20T05:51:35.829Z,58.80
2019-02-20T05:54:07.862Z,58.90
2019-02-20T05:56:40.014Z,58.90
2019-02-20T05:59:12.436Z,58.80
2019-02-20T06:01:44.679Z,58.90
2019-02-20T06:04:16.977Z,58.80
2019-02-20T06:06:49.319Z,58.60
2019-02-20T06:09:21.829Z,58.50
2019-02-20T06:11:54.276Z,58.40
2019-02-20T06:14:26.369Z,58.40
2019-02-20T06:16:58.246Z,58.60
2019-02-20T06:19:30.164Z,58.60
2019-02-20T06:22:02.805Z,58.60
2019-02-20T06:24:43.619Z,58.80
2019-02-20T06:27:08.445Z,58.70
2019-02-20T06:29:40.830Z,58.80
2019-02-20T06:32:12.800Z,59.00
2019-02-20T06:34:45.203Z,59.00
2019-02-20T06:37:17.761Z,58.80
2019-02-20T06:39:50.290Z,58.70
2019-02-20T06:42:22.135Z,58.70
2019-02-20T06:44:54.941Z,58.70
2019-02-20T06:47:26.800Z,58.60
2019-02-20T06:50:01.025Z,58.40
2019-02-20T06:52:33.120Z,58.30
2019-02-20T06:55:05.298Z,58.40
2019-02-20T06:57:37.504Z,58.40
2019-02-20T07:00:11.534Z,59.10
2019-02-20T07:02:43.730Z,58.20
2019-02-20T07:05:55.136Z,58.20
2019-02-20T07:09:33.506Z,58.40
2019-02-20T07:13:01.643Z,58.90
2019-02-20T07:16:25.025Z,58.90
2019-02-20T07:19:43.552Z,58.70
2019-02-20T07:23:15.374Z,58.30
2019-02-20T07:26:55.316Z,58.30
2019-02-20T07:30:04.928Z,58.20
2019-02-20T07:32:37.166Z,58.30
2019-02-20T07:35:11.154Z,58.30
2019-02-20T07:37:43.048Z,58.30
2019-02-20T07:40:15.081Z,58.20
2019-02-20T07:42:47.669Z,58.30
2019-02-20T07:45:19.790Z,58.80
2019-02-20T07:47:51.652Z,59.10
2019-02-20T07:50:23.485Z,59.10
2019-02-20T07:52:56.343Z,58.80
2019-02-20T07:55:29.156Z,59.50
2019-02-20T07:58:01.023Z,58.70
2019-02-20T08:00:33.269Z,58.40
2019-02-20T08:03:05.121Z,58.20
2019-02-20T08:05:36.952Z,58.10
2019-02-20T08:08:09.400Z,57.90
2019-02-20T08:10:41.213Z,58.50
2019-02-20T08:13:13.092Z,57.50
2019-02-20T08:15:44.901Z,57.20
2019-02-20T08:18:16.805Z,57.10
2019-02-20T08:20:48.916Z,56.90
2019-02-20T08:23:20.752Z,56.90
2019-02-20T08:25:52.549Z,57.60
2019-02-20T08:28:24.426Z,58.30
2019-02-20T08:30:56.935Z,58.40
2019-02-20T08:33:29.803Z,57.20
2019-02-20T08:36:02.040Z,55.90
2019-02-20T08:38:35.375Z,53.90
2019-02-20T08:41:07.168Z,52.60
2019-02-20T08:43:39.056Z,50.90
2019-02-20T08:46:10.870Z,48.50
2019-02-20T08:48:42.752Z,46.50
2019-02-20T08:51:14.949Z,44.10
2019-02-20T08:53:46.809Z,41.40
2019-02-20T08:56:18.796Z,40.60
2019-02-20T08:58:51.024Z,39.30
2019-02-20T09:01:23.171Z,38.80
2019-02-20T09:03:55.715Z,37.70
2019-02-20T09:06:27.808Z,36.40
2019-02-20T09:08:59.946Z,34.90
2019-02-20T09:11:31.873Z,33.90
2019-02-20T09:14:04.213Z,33.60
2019-02-20T09:16:36.045Z,33.50
2019-02-20T09:19:07.931Z,33.80
2019-02-20T09:21:39.776Z,32.50
2019-02-20T09:24:11.743Z,32.90
2019-02-20T09:26:44.275Z,32.60
2019-02-20T09:29:16.455Z,33.10
2019-02-20T09:31:48.539Z,33.00
2019-02-20T09:34:20.519Z,32.30
2019-02-20T09:36:52.843Z,32.60
2019-02-20T09:39:36.178Z,32.80
2019-02-20T09:42:13.903Z,33.40
2019-02-20T09:44:50.052Z,32.50
2019-02-20T09:47:22.542Z,32.80
2019-02-20T09:49:54.908Z,31.80
2019-02-20T09:52:26.740Z,31.00
2019-02-20T09:54:58.893Z,30.70
2019-02-20T09:57:31.144Z,30.00
2019-02-20T10:00:03.078Z,30.30
2019-02-20T10:02:34.886Z,30.80
2019-02-20T10:05:07.712Z,31.20
2019-02-20T10:07:39.537Z,31.50
2019-02-20T10:10:11.477Z,31.40
2019-02-20T10:12:43.332Z,29.50
2019-02-20T10:15:15.417Z,27.50
2019-02-20T10:17:47.216Z,26.30
2019-02-20T10:20:19.102Z,26.10
2019-02-20T10:22:50.939Z,25.40
2019-02-20T10:25:22.833Z,25.00
2019-02-20T10:27:54.804Z,24.70
2019-02-20T10:30:26.704Z,23.70
2019-02-20T10:32:58.735Z,23.80
2019-02-20T10:35:30.995Z,23.40
2019-02-20T10:38:02.896Z,22.60
2019-02-20T10:40:34.775Z,24.10
2019-02-20T10:43:06.609Z,26.00
2019-02-20T10:45:38.751Z,26.60
2019-02-20T10:48:10.592Z,27.10
2019-02-20T10:50:42.470Z,27.60
2019-02-20T10:53:14.300Z,27.60
2019-02-20T10:55:46.167Z,28.20
2019-02-20T10:58:18.027Z,28.20
2019-02-20T11:00:49.901Z,28.60
2019-02-20T11:03:21.717Z,29.30
2019-02-20T11:05:53.679Z,29.60
2019-02-20T11:08:25.770Z,29.30
2019-02-20T11:10:57.638Z,29.70
2019-02-20T11:13:29.864Z,30.00
2019-02-20T11:16:01.792Z,29.40
2019-02-20T11:18:33.607Z,29.50
2019-02-20T11:21:06.241Z,30.20
2019-02-20T11:23:38.098Z,30.50
2019-02-20T11:26:17.833Z,29.50
2019-02-20T11:28:44.454Z,29.60
2019-02-20T11:31:16.446Z,29.10
2019-02-20T11:33:48.273Z,30.10
2019-02-20T11:36:20.393Z,30.50
2019-02-20T11:38:52.226Z,29.90
2019-02-20T11:41:24.565Z,29.20
2019-02-20T11:43:56.777Z,28.20
2019-02-20T11:46:28.792Z,25.00
2019-02-20T11:49:00.754Z,22.70
2019-02-20T11:51:32.811Z,20.50
2019-02-20T11:54:04.767Z,19.90
2019-02-20T11:56:36.717Z,19.80
2019-02-20T11:59:08.569Z,19.80
2019-02-20T12:01:40.765Z,18.90
2019-02-20T12:04:13.332Z,18.90
2019-02-20T12:06:45.853Z,19.00
2019-02-20T12:09:17.680Z,18.30
2019-02-20T12:11:49.982Z,18.10
2019-02-20T12:14:24.358Z,17.50
2019-02-20T12:16:55.703Z,17.30
2019-02-20T12:19:34.129Z,17.20
2019-02-20T12:22:06.414Z,17.10
2019-02-20T12:24:38.352Z,16.40
2019-02-20T12:27:10.567Z,16.50
2019-02-20T12:29:42.387Z,15.90
2019-02-20T12:32:14.425Z,15.60
2019-02-20T12:34:46.643Z,16.10
2019-02-20T12:37:18.515Z,16.20
2019-02-20T12:39:50.444Z,17.20
2019-02-20T12:42:22.828Z,17.70
2019-02-20T12:44:54.924Z,17.30
2019-02-20T12:47:27.235Z,16.60
2019-02-20T12:50:00.030Z,16.50
2019-02-20T12:52:32.791Z,16.20
2019-02-20T12:55:05.459Z,16.20
2019-02-20T12:57:38.369Z,16.50
2019-02-20T13:00:10.779Z,16.90
2019-02-20T13:02:43.432Z,18.40
2019-02-20T13:05:15.441Z,19.20
2019-02-20T13:07:48.644Z,19.70
2019-02-20T13:10:21.151Z,20.20
2019-02-20T13:12:53.305Z,20.70
2019-02-20T13:15:27.249Z,21.00
2019-02-20T13:17:59.533Z,21.40
2019-02-20T13:20:31.651Z,22.60
2019-02-20T13:23:03.545Z,22.90
2019-02-20T13:25:36.051Z,22.00
2019-02-20T13:28:08.214Z,21.30
2019-02-20T13:30:40.534Z,20.90
2019-02-20T13:33:12.710Z,20.50
2019-02-20T13:35:44.573Z,21.60
2019-02-20T13:38:16.494Z,22.90
2019-02-20T13:40:48.335Z,23.70
2019-02-20T13:43:20.702Z,24.40
2019-02-20T13:45:52.626Z,24.70
2019-02-20T13:48:24.518Z,24.00
2019-02-20T13:50:56.676Z,24.50
2019-02-20T13:53:28.596Z,23.80
2019-02-20T13:56:00.482Z,23.50
2019-02-20T13:58:33.049Z,22.50
2019-02-20T14:01:05.017Z,21.80
2019-02-20T14:03:36.890Z,20.90
2019-02-20T14:06:08.748Z,20.40
2019-02-20T14:08:41.169Z,20.00
2019-02-20T14:11:13.312Z,19.90
2019-02-20T14:13:45.540Z,19.80
2019-02-20T14:16:17.348Z,19.10
2019-02-20T14:18:49.326Z,19.10
2019-02-20T14:21:21.442Z,19.00
2019-02-20T14:23:54.015Z,19.20
2019-02-20T14:26:25.880Z,19.10
2019-02-20T14:28:57.767Z,18.80
2019-02-20T14:31:30.258Z,18.60
2019-02-20T14:34:02.793Z,18.00
2019-02-20T14:36:35.644Z,16.90
2019-02-20T14:39:07.670Z,16.80
2019-02-20T14:41:39.519Z,16.40
2019-02-20T14:44:12.445Z,15.70
2019-02-20T14:46:45.015Z,15.90
2019-02-20T14:49:17.379Z,15.70
2019-02-20T14:51:49.200Z,15.80
2019-02-20T14:54:21.337Z,15.20
2019-02-20T14:56:53.172Z,15.20
2019-02-20T14:59:25.016Z,15.30
2019-02-20T15:01:57.619Z,15.70
2019-02-20T15:04:29.806Z,15.10
2019-02-20T15:07:01.629Z,15.20
2019-02-20T15:09:33.475Z,15.30
2019-02-20T15:12:05.458Z,16.40
2019-02-20T15:14:38.386Z,17.60
2019-02-20T15:17:10.254Z,18.70
2019-02-20T15:19:42.393Z,20.00
2019-02-20T15:22:14.292Z,21.50
2019-02-20T15:24:46.141Z,22.90
2019-02-20T15:27:19.279Z,24.30
2019-02-20T15:29:52.049Z,25.30
2019-02-20T15:32:24.345Z,26.00
2019-02-20T15:34:56.475Z,26.80
2019-02-20T15:37:28.354Z,27.30
2019-02-20T15:40:00.313Z,27.70
2019-02-20T15:42:32.207Z,28.00
2019-02-20T15:45:04.089Z,28.70
2019-02-20T15:47:35.972Z,29.20
2019-02-20T15:50:09.526Z,29.70
2019-02-20T15:52:41.686Z,30.20
2019-02-20T15:55:13.671Z,30.30
2019-02-20T15:57:45.627Z,31.10
2019-02-20T16:00:19.442Z,31.50
2019-02-20T16:02:51.753Z,32.80
2019-02-20T16:05:23.666Z,33.80
2019-02-20T16:07:56.294Z,34.90
2019-02-20T16:10:28.222Z,35.20
2019-02-20T16:13:00.988Z,35.50
2019-02-20T16:15:33.239Z,36.20
2019-02-20T16:18:05.804Z,36.90
2019-02-20T16:20:37.842Z,37.50
2019-02-20T16:23:10.031Z,37.90
2019-02-20T16:25:44.959Z,38.70
2019-02-20T16:28:34.307Z,39.30
2019-02-20T16:31:06.396Z,39.80
2019-02-20T16:33:38.638Z,40.10
2019-02-20T16:36:10.959Z,40.50
2019-02-20T16:38:43.969Z,41.10
2019-02-20T16:41:15.830Z,42.20
2019-02-20T16:43:48.756Z,42.40
2019-02-20T16:46:21.428Z,43.00
2019-02-20T16:48:53.708Z,43.30
2019-02-20T16:51:25.828Z,43.30
2019-02-20T16:53:57.809Z,43.70
2019-02-20T16:56:29.693Z,43.90
2019-02-20T16:59:01.972Z,44.40
2019-02-20T17:01:33.857Z,45.20
2019-02-20T17:04:07.237Z,45.80
2019-02-20T17:06:40.948Z,45.60
2019-02-20T17:09:12.790Z,45.60
2019-02-20T17:11:44.664Z,45.80
2019-02-20T17:14:16.890Z,45.90
2019-02-20T17:16:49.640Z,45.80
2019-02-20T17:19:22.315Z,45.60
2019-02-20T17:21:54.523Z,45.60
2019-02-20T17:24:30.115Z,45.80
2019-02-20T17:27:03.064Z,45.90
2019-02-20T17:30:04.235Z,46.20
2019-02-20T17:32:36.402Z,46.40
2019-02-20T17:35:35.124Z,46.80
2019-02-20T17:38:07.241Z,47.00
2019-02-20T17:40:39.811Z,47.20
2019-02-20T17:43:12.429Z,47.20
2019-02-20T17:45:44.367Z,47.20
2019-02-20T17:48:19.029Z,47.60
2019-02-20T17:50:50.905Z,47.90
2019-02-20T17:53:24.552Z,48.20
2019-02-20T17:55:59.767Z,48.40
2019-02-20T17:58:32.000Z,48.90
2019-02-20T18:01:05.455Z,49.30
2019-02-20T18:03:37.905Z,49.50
2019-02-20T18:06:09.720Z,49.40
2019-02-20T18:08:42.459Z,49.20
2019-02-20T18:11:14.596Z,49.20
2019-02-20T18:13:46.755Z,49.20
2019-02-20T18:16:19.170Z,49.10
2019-02-20T18:18:51.048Z,49.10
2019-02-20T18:21:23.702Z,49.20
2019-02-20T18:23:55.850Z,49.90
2019-02-20T18:26:27.676Z,49.60
2019-02-20T18:29:00.022Z,50.10
2019-02-20T18:31:32.521Z,50.50
2019-02-20T18:34:05.033Z,50.80
2019-02-20T18:36:36.855Z,51.00
2019-02-20T18:39:08.718Z,51.20
2019-02-20T18:41:40.848Z,51.20
2019-02-20T18:44:13.994Z,51.90
2019-02-20T18:46:45.808Z,51.10
2019-02-20T18:49:17.988Z,51.20
2019-02-20T18:51:50.090Z,51.20
2019-02-20T18:54:25.587Z,51.10
2019-02-20T18:56:57.853Z,51.40
2019-02-20T18:59:29.715Z,51.90
2019-02-20T19:02:01.843Z,52.20
2019-02-20T19:04:38.537Z,52.30
2019-02-20T19:07:13.094Z,52.10
2019-02-20T19:09:49.435Z,52.00
2019-02-20T19:12:52.638Z,52.00
2019-02-20T19:16:26.669Z,52.00
2019-02-20T19:19:32.647Z,52.10
2019-02-20T19:23:09.651Z,52.00
2019-02-20T19:26:35.153Z,51.60
2019-02-20T19:29:43.261Z,51.50
2019-02-20T19:33:23.349Z,51.70
2019-02-20T19:36:40.065Z,52.10
2019-02-20T19:39:59.783Z,52.30
2019-02-20T19:43:27.346Z,52.80
2019-02-20T19:46:57.889Z,53.20
2019-02-20T19:50:16.256Z,53.40
2019-02-20T19:53:34.839Z,53.70
2019-02-20T19:56:50.298Z,54.00
2019-02-20T20:00:14.048Z,53.70
2019-02-20T20:03:23.627Z,53.70
2019-02-20T20:07:02.777Z,54.20
2019-02-20T20:10:21.901Z,54.30
2019-02-20T20:13:43.127Z,53.80
2019-02-20T20:17:22.467Z,53.50
2019-02-20T20:20:35.564Z,53.20
2019-02-20T20:23:56.996Z,52.90
2019-02-20T20:27:38.662Z,52.90
2019-02-20T20:30:55.966Z,52.70
2019-02-20T20:35:01.849Z,52.50
2019-02-20T20:38:19.664Z,52.70
2019-02-20T20:41:37.089Z,52.80
2019-02-20T20:44:49.611Z,52.70
2019-02-20T20:48:32.269Z,52.80
2019-02-20T20:52:07.043Z,52.70
2019-02-20T20:55:27.007Z,52.90
2019-02-20T20:58:44.612Z,52.70
2019-02-20T21:01:45.151Z,52.70
2019-02-20T21:05:13.920Z,52.70
2019-02-20T21:08:21.044Z,52.60
2019-02-20T21:12:14.931Z,52.70
2019-02-20T21:15:31.320Z,52.80
2019-02-20T21:19:02.554Z,52.80
2019-02-20T21:22:13.772Z,52.60
2019-02-20T21:25:37.495Z,52.40
2019-02-20T21:29:09.915Z,52.60
2019-02-20T21:32:57.479Z,52.70
2019-02-20T21:36:16.556Z,52.70
2019-02-20T21:39:26.465Z,52.70
2019-02-20T21:43:18.315Z,52.90
2019-02-20T21:46:58.588Z,53.00
2019-02-20T21:50:23.175Z,52.90
2019-02-20T21:53:22.141Z,53.20
2019-02-20T21:56:30.073Z,53.00
2019-02-20T21:59:44.746Z,53.00
2019-02-20T22:03:04.713Z,53.10
2019-02-20T22:06:40.847Z,53.00
2019-02-20T22:10:01.239Z,52.60
2019-02-20T22:13:33.879Z,52.90
2019-02-20T22:16:49.419Z,53.20
2019-02-20T22:20:39.744Z,53.90
2019-02-20T22:24:02.995Z,54.40
2019-02-20T22:27:51.351Z,55.00
2019-02-20T22:31:06.767Z,55.30
2019-02-20T22:34:52.211Z,54.90
2019-02-20T22:38:21.628Z,55.00
2019-02-20T22:41:07.109Z,54.80
2019-02-20T22:44:39.460Z,54.90
2019-02-20T22:47:59.798Z,54.70
2019-02-20T22:51:29.868Z,54.50
2019-02-20T22:54:43.417Z,54.40
2019-02-20T22:58:03.352Z,54.50
2019-02-20T23:01:45.233Z,54.90
2019-02-20T23:05:14.099Z,54.90
2019-02-20T23:08:25.876Z,55.20
2019-02-20T23:12:05.513Z,55.30
2019-02-20T23:15:02.517Z,55.20
2019-02-20T23:17:39.995Z,55.30
2019-02-20T23:23:42.005Z,55.30
2019-02-20T23:26:29.486Z,55.30
